Langley Air Force Base
KLFI : now visible

Airfield :











YOU CAN JOIN US ON...

 
LOGIN :

Register | Disclaimer

   EN    FR    IT 

 









Legend :    VFR   Marginal VFR   IFR   Intensive IFR   Very Intensive IFR
Visi :
Ceiling :
>= 8 km
>= 3000ft
5 to 8 km
1000 to 3000 ft
1500m to 5 km
500 to 1000 ft
800 to 1500m
200 to 500 ft
< 800m
< 200 ft
Symbols :   Thunderstorms  Fog  Heavy snow  Heavy precipitations  Wind > 20 kt






- Airport Elevation : 11 ft


KLFI - Langley Air Force Base

CURRENT METAR :
  • 231956Z 00000KT 10SM SCT040 28/15 A3013 RMK AO2A SLP209 T02780151 $

EXPIRED METARs :
  • 231856Z 05008KT 9SM BKN120 27/16 A3014 RMK AO2A SLP213 T02700160 $
  • 231756Z 02003KT 9SM SCT080 SCT150 28/15 A3015 RMK AO2A SLP216 T02760149 10280 20220 58008 $

TAF TAF KLFI
Valid from the 23 at 17:00 until the 24 at 23:00 UTC


231700Z 2317/2423 VRB06KT 9999 FEW170 QNH3006INS
BECMG 2405/2406 17090KT 9999 FEW080 QNH3004INS TX27/2318Z TN20/2409Z
KZDC FIR / North America



MET'MAP, your aeronautical weather chart ! - Copyright ORBIFLY December 2007 - Disclaimer

ORBIFLY MET'MAP TEAM :

Programming & Development : Alexandra Zaïnal
Concept & original design : Baudouin d'Aumeries
Assistance for programming : Marc-Olivier Méhu
Technical & hardware support : Manuel Goepfert

Contact : metmap@orbifly.com




SOURCES & CREDITS :

   NOAA       Earth
Advisory